Terminal Aerodrome Forecast
Issued by NWS Wilmington, NC

Current Version | Previous Version | Text Only | Print | Product List | Glossary On
Versions: 1 2 3 4 5 6 7 8 9 10 11 12 13
000
FTUS42 KILM 251700
TAFILM
TAF
KILM 251720Z 2518/2618 32006KT P6SM SKC
     FM260000 00000KT P6SM FEW080
     FM261000 31005KT P6SM SCT050
     FM261400 34010KT P6SM SKC=

USA.gov is the U.S. government's official web portal to all federal, state and local government web resources and services.